Time;durP1;ratioP1;P1;durP2;ratioP2;P2;SDS_P1;SDS_P2;PMS_P1;PMS_P2;Temp;Humidity;BMP_temperature;BMP_pressure;BME280_temperature;BME280_humidity;BME280_pressure;Samples;Min_cycle;Max_cycle;Signal;HPM_P1;HPM_P2
2022/09/22 00:02:00;;;;;;;14.20;9.10;;;9.00;99.90;;;;;;5045674;28;20220;-68
2022/09/22 00:04:27;;;;;;;10.70;8.80;;;9.00;99.90;;;;;;5046031;28;20253;-69
2022/09/22 00:06:56;;;;;;;11.77;9.30;;;9.00;99.90;;;;;;5053100;28;20237;-68
2022/09/22 00:09:23;;;;;;;10.47;9.10;;;9.00;99.90;;;;;;5053172;28;20251;-69
2022/09/22 00:11:53;;;;;;;12.50;9.40;;;9.00;99.90;;;;;;5052754;28;20296;-69
2022/09/22 00:14:24;;;;;;;13.67;9.87;;;9.00;99.90;;;;;;5052155;28;20211;-69
2022/09/22 00:16:53;;;;;;;12.90;9.70;;;8.90;99.90;;;;;;5052135;28;20295;-68
2022/09/22 00:19:22;;;;;;;12.40;9.00;;;8.90;99.90;;;;;;5053008;28;20259;-68
2022/09/22 00:21:49;;;;;;;14.70;10.57;;;8.90;99.90;;;;;;5052544;28;20292;-68
2022/09/22 00:24:17;;;;;;;13.03;9.43;;;8.90;99.90;;;;;;5051939;28;20240;-68
2022/09/22 00:26:44;;;;;;;11.97;9.40;;;8.90;99.90;;;;;;5051942;28;20292;-68
2022/09/22 00:29:12;;;;;;;16.13;11.43;;;8.90;99.90;;;;;;5052479;28;20650;-69
2022/09/22 00:31:41;;;;;;;12.40;9.83;;;8.90;99.90;;;;;;5052516;28;20356;-68
2022/09/22 00:34:13;;;;;;;11.80;9.60;;;8.90;99.90;;;;;;5051160;28;20212;-69
2022/09/22 00:36:39;;;;;;;12.37;9.13;;;8.90;99.90;;;;;;5052622;28;20696;-68
2022/09/22 00:39:06;;;;;;;12.00;8.97;;;8.90;99.90;;;;;;5051720;28;20297;-68
2022/09/22 00:41:36;;;;;;;10.30;9.10;;;8.90;99.90;;;;;;5052531;28;20296;-69
2022/09/22 00:44:38;;;;;;;12.37;10.33;;;9.00;99.90;;;;;;5051728;28;20709;-69
2022/09/22 00:47:19;;;;;;;14.43;9.67;;;9.00;99.90;;;;;;4991377;28;20193;-68
2022/09/22 00:49:51;;;;;;;10.57;8.87;;;9.00;99.90;;;;;;4990841;28;20684;-69
2022/09/22 00:52:23;;;;;;;12.10;8.57;;;9.00;99.90;;;;;;4990136;28;20410;-68
2022/09/22 00:54:52;;;;;;;11.63;8.80;;;9.00;99.90;;;;;;4990521;28;20188;-70
2022/09/22 00:57:22;;;;;;;10.53;8.70;;;9.10;99.90;;;;;;4990930;28;20207;-69
2022/09/22 00:59:51;;;;;;;13.23;9.30;;;9.10;99.90;;;;;;4990593;28;20191;-69
2022/09/22 01:02:21;;;;;;;12.03;9.50;;;9.00;99.90;;;;;;4989512;28;20204;-69
2022/09/22 01:04:51;;;;;;;10.90;9.40;;;9.10;99.90;;;;;;4986184;28;20233;-69
2022/09/22 01:07:19;;;;;;;11.23;9.07;;;9.10;99.90;;;;;;4990697;28;20613;-68
2022/09/22 01:09:46;;;;;;;13.37;9.90;;;9.10;99.90;;;;;;4989159;28;20323;-67
2022/09/22 01:12:13;;;;;;;12.90;10.03;;;9.10;99.90;;;;;;4990525;28;20649;-69
2022/09/22 01:15:02;;;;;;;13.00;9.83;;;9.10;99.90;;;;;;4988779;28;20445;-68
2022/09/22 01:17:37;;;;;;;10.60;9.23;;;9.10;99.90;;;;;;5002618;28;20206;-67
2022/09/22 01:20:49;;;;;;;16.17;11.67;;;9.10;99.90;;;;;;5039336;28;20203;-68
2022/09/22 01:23:46;;;;;;;11.13;9.93;;;9.10;99.90;;;;;;5026279;28;20233;-66
2022/09/22 01:26:41;;;;;;;10.03;8.83;;;9.10;99.90;;;;;;5008277;28;20205;-69
2022/09/22 01:29:44;;;;;;;9.87;8.63;;;9.10;99.90;;;;;;5051541;28;20702;-69
2022/09/22 01:32:18;;;;;;;12.00;9.33;;;9.10;99.90;;;;;;5048408;28;20233;-68
2022/09/22 01:34:51;;;;;;;10.53;8.67;;;9.10;99.90;;;;;;5051476;28;20276;-69
2022/09/22 01:37:24;;;;;;;12.20;9.53;;;9.10;99.90;;;;;;5051804;28;20285;-70
2022/09/22 01:39:55;;;;;;;12.23;9.63;;;9.10;99.90;;;;;;5049460;28;20671;-69
2022/09/22 01:42:27;;;;;;;12.73;10.13;;;9.10;99.90;;;;;;5051848;28;20664;-69
2022/09/22 01:45:00;;;;;;;11.90;10.03;;;9.00;99.90;;;;;;5051828;28;20624;-68
2022/09/22 01:47:34;;;;;;;11.73;9.23;;;9.10;99.90;;;;;;5051183;28;20206;-67
2022/09/22 01:50:08;;;;;;;13.40;9.90;;;9.00;99.90;;;;;;5050962;28;20557;-68
2022/09/22 01:52:36;;;;;;;13.27;9.53;;;9.00;99.90;;;;;;5051459;28;20712;-69
2022/09/22 01:55:06;;;;;;;11.53;9.33;;;9.00;99.90;;;;;;5051740;28;20598;-68
2022/09/22 01:57:41;;;;;;;12.40;9.43;;;9.00;99.90;;;;;;5051613;28;20285;-67
2022/09/22 02:00:09;;;;;;;12.40;9.07;;;9.00;99.90;;;;;;5051043;28;20292;-68
2022/09/22 02:02:44;;;;;;;12.37;8.63;;;9.00;99.90;;;;;;5051284;28;20308;-69
2022/09/22 02:05:15;;;;;;;9.83;8.63;;;9.00;99.90;;;;;;5050543;28;20296;-69
2022/09/22 02:07:47;;;;;;;10.43;8.70;;;9.00;99.90;;;;;;5051503;28;20233;-69
2022/09/22 02:10:17;;;;;;;10.57;7.90;;;9.00;99.90;;;;;;5050700;28;20280;-69
2022/09/22 02:12:45;;;;;;;10.47;8.80;;;9.00;99.90;;;;;;5051455;28;20659;-68
2022/09/22 02:17:58;;;;;;;11.37;8.27;;;8.90;99.90;;;;;;5050519;28;20566;-68
2022/09/22 02:20:25;;;;;;;10.13;8.73;;;8.90;99.90;;;;;;5050562;28;20629;-68
2022/09/22 02:22:53;;;;;;;10.30;8.20;;;8.90;99.90;;;;;;5051500;28;20269;-69
2022/09/22 02:25:21;;;;;;;12.37;9.47;;;8.90;99.90;;;;;;5050831;28;20235;-68
2022/09/22 02:27:49;;;;;;;11.60;9.20;;;8.90;99.90;;;;;;5054427;28;20683;-68
2022/09/22 02:30:17;;;;;;;10.87;8.93;;;8.90;99.90;;;;;;5054387;28;20243;-68
2022/09/22 02:32:48;;;;;;;10.70;8.33;;;8.90;99.90;;;;;;5055596;28;20244;-68
2022/09/22 02:35:17;;;;;;;10.63;8.17;;;8.80;99.90;;;;;;5055750;28;20542;-68
2022/09/22 02:37:50;;;;;;;10.03;8.60;;;8.80;99.90;;;;;;5055149;28;20224;-68
2022/09/22 02:40:26;;;;;;;11.73;9.17;;;8.80;99.90;;;;;;5053843;28;20583;-68
2022/09/22 02:43:02;;;;;;;12.53;9.17;;;8.80;99.90;;;;;;5055186;28;20577;-68
2022/09/22 02:45:34;;;;;;;10.93;8.70;;;8.80;99.90;;;;;;5054827;28;20759;-68
2022/09/22 02:48:05;;;;;;;13.60;8.43;;;8.70;99.90;;;;;;5055027;28;20282;-67
2022/09/22 02:50:35;;;;;;;10.90;8.00;;;8.80;99.90;;;;;;5052471;28;20300;-69
2022/09/22 02:53:03;;;;;;;14.43;8.63;;;8.80;99.90;;;;;;5054671;28;20304;-69
2022/09/22 02:55:30;;;;;;;10.13;8.27;;;8.80;99.90;;;;;;5054765;28;20683;-70
2022/09/22 02:57:57;;;;;;;10.20;8.53;;;8.80;99.90;;;;;;5053780;28;20193;-66
2022/09/22 03:00:25;;;;;;;10.90;9.10;;;8.80;99.90;;;;;;5054330;28;20689;-68
2022/09/22 03:02:52;;;;;;;15.10;11.10;;;8.80;99.90;;;;;;5054632;28;20233;-69
2022/09/22 03:05:19;;;;;;;10.73;8.60;;;8.70;99.90;;;;;;5054274;28;20743;-72
2022/09/22 03:07:47;;;;;;;11.70;8.60;;;8.70;99.90;;;;;;5053845;28;20292;-69
2022/09/22 03:10:14;;;;;;;11.63;8.70;;;8.70;99.90;;;;;;5054208;28;20763;-69
2022/09/22 03:12:42;;;;;;;11.30;9.60;;;8.70;99.90;;;;;;5054302;28;20210;-70
2022/09/22 03:15:10;;;;;;;10.73;8.60;;;8.70;99.90;;;;;;5052708;28;20244;-68
2022/09/22 03:17:38;;;;;;;9.53;8.00;;;8.70;99.90;;;;;;5053919;28;20205;-69
2022/09/22 03:20:06;;;;;;;9.80;8.43;;;8.70;99.90;;;;;;5054780;28;20296;-68
2022/09/22 03:22:33;;;;;;;10.90;7.90;;;8.70;99.90;;;;;;5054084;28;20313;-68
2022/09/22 03:25:01;;;;;;;12.33;8.23;;;8.70;99.90;;;;;;5053502;28;20627;-73
2022/09/22 03:27:28;;;;;;;10.17;8.53;;;8.70;99.90;;;;;;5053965;28;20743;-69
2022/09/22 03:29:55;;;;;;;11.13;8.23;;;8.70;99.90;;;;;;5054017;28;20711;-69
2022/09/22 03:32:22;;;;;;;12.37;8.33;;;8.60;99.90;;;;;;5054142;28;20224;-69
2022/09/22 03:34:49;;;;;;;10.43;8.50;;;8.60;99.90;;;;;;5053129;28;20210;-69
2022/09/22 03:37:16;;;;;;;10.27;8.63;;;8.70;99.90;;;;;;5053624;28;20206;-69
2022/09/22 03:39:43;;;;;;;10.03;8.40;;;8.70;99.90;;;;;;5053209;28;20653;-68
2022/09/22 03:42:12;;;;;;;9.73;8.40;;;8.70;99.90;;;;;;5053745;28;20205;-70
2022/09/22 03:44:38;;;;;;;12.67;8.60;;;8.70;99.90;;;;;;5052887;28;20221;-68
2022/09/22 03:47:05;;;;;;;11.10;8.90;;;8.70;99.90;;;;;;5054365;28;20201;-68
2022/09/22 03:49:32;;;;;;;10.47;8.80;;;8.70;99.90;;;;;;5053983;28;20296;-69
2022/09/22 03:51:59;;;;;;;10.47;8.93;;;8.70;99.90;;;;;;5052827;28;20208;-69
2022/09/22 03:54:26;;;;;;;10.83;9.20;;;8.70;99.90;;;;;;5053593;28;20236;-69
2022/09/22 03:56:53;;;;;;;11.13;9.43;;;8.80;99.90;;;;;;5053972;28;20582;-69
2022/09/22 03:59:21;;;;;;;13.07;9.80;;;8.80;99.90;;;;;;5053540;28;20216;-69
2022/09/22 04:01:48;;;;;;;10.87;8.80;;;8.80;99.90;;;;;;5052930;28;20284;-68
2022/09/22 04:04:16;;;;;;;11.33;8.77;;;8.80;99.90;;;;;;5053318;28;20221;-69
2022/09/22 04:06:42;;;;;;;10.93;8.67;;;8.80;99.90;;;;;;5053485;28;20732;-69
2022/09/22 04:09:10;;;;;;;11.47;9.23;;;8.80;99.90;;;;;;5053744;28;20668;-69
2022/09/22 04:11:37;;;;;;;13.17;9.33;;;8.90;99.90;;;;;;5052626;28;20352;-69
2022/09/22 04:14:04;;;;;;;11.67;9.67;;;8.90;99.90;;;;;;5052871;28;20259;-68
2022/09/22 04:16:32;;;;;;;12.50;9.77;;;9.00;99.90;;;;;;5053162;28;20217;-68
2022/09/22 04:18:59;;;;;;;13.10;9.27;;;9.00;99.90;;;;;;5053018;28;20212;-69
2022/09/22 04:21:27;;;;;;;11.73;9.03;;;9.00;99.90;;;;;;5052185;28;20622;-69
2022/09/22 04:23:55;;;;;;;13.20;8.93;;;9.10;99.90;;;;;;5033397;28;20206;-69
2022/09/22 04:26:21;;;;;;;12.43;9.60;;;9.10;99.90;;;;;;5033110;28;20206;-68
2022/09/22 04:28:48;;;;;;;12.93;9.10;;;9.10;99.90;;;;;;5032957;28;20289;-68
2022/09/22 04:31:15;;;;;;;13.60;9.00;;;9.20;99.90;;;;;;5032565;28;20766;-69
2022/09/22 04:33:43;;;;;;;10.67;9.10;;;9.20;99.90;;;;;;5051082;28;20297;-69
2022/09/22 04:36:10;;;;;;;11.40;8.77;;;9.20;99.90;;;;;;5052532;28;20288;-69
2022/09/22 04:38:37;;;;;;;12.87;9.20;;;9.20;99.90;;;;;;5052775;28;20664;-69
2022/09/22 04:41:04;;;;;;;14.40;9.90;;;9.30;99.90;;;;;;5052599;28;20296;-68
2022/09/22 04:43:31;;;;;;;12.13;9.73;;;9.30;99.90;;;;;;5051583;28;20201;-70
2022/09/22 04:45:58;;;;;;;12.77;10.00;;;9.30;99.90;;;;;;5052549;28;20670;-69
2022/09/22 04:48:24;;;;;;;16.70;10.20;;;9.40;99.90;;;;;;5052657;28;20243;-68
2022/09/22 04:50:53;;;;;;;14.23;10.57;;;9.40;99.90;;;;;;5051990;28;20299;-69
2022/09/22 04:53:20;;;;;;;17.13;11.30;;;9.40;99.90;;;;;;5051116;28;20723;-69
2022/09/22 04:55:46;;;;;;;19.20;11.00;;;9.40;99.90;;;;;;5052361;28;20233;-70
2022/09/22 04:58:13;;;;;;;14.40;10.80;;;9.40;99.90;;;;;;5052605;28;20271;-70
2022/09/22 05:00:40;;;;;;;16.10;12.43;;;9.40;99.90;;;;;;5052514;28;20209;-71
2022/09/22 05:03:08;;;;;;;21.00;13.00;;;9.40;99.90;;;;;;5051897;28;20206;-70
2022/09/22 05:05:35;;;;;;;15.40;11.30;;;9.40;99.90;;;;;;5052407;28;20653;-70
2022/09/22 05:08:04;;;;;;;17.73;11.50;;;9.40;99.90;;;;;;5052428;28;20628;-69
2022/09/22 05:10:33;;;;;;;17.73;12.10;;;9.30;99.90;;;;;;5053056;28;20206;-70
2022/09/22 05:13:00;;;;;;;15.23;10.97;;;9.30;99.90;;;;;;5051107;28;20210;-67
2022/09/22 05:15:27;;;;;;;18.53;12.73;;;9.40;99.90;;;;;;5051754;28;20304;-68
2022/09/22 05:17:55;;;;;;;16.20;12.23;;;9.40;99.90;;;;;;5051782;28;20212;-68
2022/09/22 05:20:22;;;;;;;16.73;12.47;;;9.50;99.90;;;;;;5052089;28;20286;-69
2022/09/22 05:22:48;;;;;;;17.93;13.03;;;9.50;99.90;;;;;;5049003;28;20712;-68
2022/09/22 05:25:18;;;;;;;18.67;13.63;;;9.60;99.90;;;;;;5051389;28;20235;-69
2022/09/22 05:27:47;;;;;;;16.73;13.00;;;9.60;99.90;;;;;;5052046;28;20205;-68
2022/09/22 05:30:14;;;;;;;16.70;12.87;;;9.60;99.90;;;;;;5051316;28;20233;-69
2022/09/22 05:32:42;;;;;;;19.50;13.03;;;9.60;99.90;;;;;;5051257;28;20641;-68
2022/09/22 05:35:10;;;;;;;18.93;13.57;;;9.70;99.90;;;;;;5051486;28;20208;-71
2022/09/22 05:37:36;;;;;;;20.87;13.97;;;9.70;99.90;;;;;;5049748;28;20225;-66
2022/09/22 05:40:05;;;;;;;17.97;13.17;;;9.70;99.90;;;;;;5051020;28;20511;-69
2022/09/22 05:42:33;;;;;;;19.67;12.57;;;9.70;99.90;;;;;;5051857;28;20236;-67
2022/09/22 05:45:00;;;;;;;19.87;13.37;;;9.70;99.90;;;;;;5051532;28;20666;-69
2022/09/22 05:47:27;;;;;;;17.23;12.97;;;9.80;99.90;;;;;;5050603;28;20237;-70
2022/09/22 05:49:55;;;;;;;16.53;13.33;;;9.80;99.90;;;;;;5048617;28;20205;-67
2022/09/22 05:52:22;;;;;;;18.53;12.67;;;9.80;99.90;;;;;;5051781;28;20212;-69
2022/09/22 05:54:48;;;;;;;19.90;13.67;;;9.80;99.90;;;;;;5051804;28;20208;-69
2022/09/22 05:57:15;;;;;;;24.73;14.77;;;9.90;99.90;;;;;;5051357;28;20784;-70
2022/09/22 05:59:43;;;;;;;20.47;14.03;;;9.90;99.90;;;;;;5048875;28;20208;-68
2022/09/22 06:02:11;;;;;;;22.20;14.17;;;9.90;99.90;;;;;;5033370;28;20269;-70
2022/09/22 06:04:37;;;;;;;21.50;14.87;;;9.90;99.90;;;;;;5035939;28;20361;-68
2022/09/22 06:07:05;;;;;;;20.93;15.03;;;9.90;99.90;;;;;;5035548;28;20747;-69
2022/09/22 06:09:32;;;;;;;21.30;14.90;;;10.00;99.90;;;;;;5035820;28;20817;-70
2022/09/22 06:11:59;;;;;;;21.87;14.73;;;10.00;99.90;;;;;;5053807;28;20251;-68
2022/09/22 06:14:26;;;;;;;20.30;13.90;;;10.00;99.90;;;;;;5055480;28;20211;-70
2022/09/22 06:16:54;;;;;;;17.57;13.17;;;10.00;99.90;;;;;;5055707;28;20209;-70
2022/09/22 06:19:22;;;;;;;18.40;12.77;;;10.00;99.90;;;;;;5055757;28;20571;-68
2022/09/22 06:21:49;;;;;;;20.50;13.97;;;10.00;99.90;;;;;;5054193;28;20201;-69
2022/09/22 06:24:16;;;;;;;20.50;13.60;;;10.00;99.90;;;;;;5054327;28;20210;-69
2022/09/22 06:26:42;;;;;;;18.33;12.43;;;10.00;99.90;;;;;;5053929;28;20225;-68
2022/09/22 06:29:09;;;;;;;19.70;11.97;;;10.10;99.90;;;;;;5055098;28;20295;-68
2022/09/22 06:31:36;;;;;;;18.80;12.80;;;10.10;99.90;;;;;;5054972;28;20323;-68
2022/09/22 06:34:05;;;;;;;16.50;11.97;;;10.10;99.90;;;;;;5052378;28;20348;-69
2022/09/22 06:36:31;;;;;;;20.73;12.10;;;10.20;99.90;;;;;;5055051;28;20289;-69
2022/09/22 06:38:58;;;;;;;15.77;11.70;;;10.20;99.90;;;;;;5054906;28;20205;-69
2022/09/22 06:41:25;;;;;;;18.73;11.97;;;10.30;99.90;;;;;;5055066;28;20215;-68
2022/09/22 06:43:54;;;;;;;18.03;12.83;;;10.30;99.90;;;;;;5052110;28;20304;-70
2022/09/22 06:46:24;;;;;;;18.07;12.43;;;10.40;99.90;;;;;;5055070;28;20267;-68
2022/09/22 06:48:56;;;;;;;15.47;11.47;;;10.30;99.90;;;;;;5054931;28;20529;-68
2022/09/22 06:51:25;;;;;;;16.10;11.47;;;10.40;99.90;;;;;;5054997;28;20193;-69
2022/09/22 06:53:53;;;;;;;14.80;11.73;;;10.40;99.90;;;;;;5053925;28;20202;-69
2022/09/22 06:56:20;;;;;;;15.43;11.03;;;10.50;99.90;;;;;;5053493;28;20228;-69
2022/09/22 06:58:48;;;;;;;17.23;11.67;;;10.50;99.90;;;;;;5054407;28;20274;-68
2022/09/22 07:01:15;;;;;;;15.50;11.23;;;10.60;99.90;;;;;;5054664;28;20213;-67
2022/09/22 07:03:43;;;;;;;14.77;10.30;;;10.60;99.90;;;;;;5054513;28;20284;-69
2022/09/22 07:06:15;;;;;;;14.57;10.10;;;10.70;99.90;;;;;;5052906;28;20629;-70
2022/09/22 07:08:46;;;;;;;14.33;10.87;;;10.80;99.90;;;;;;5054562;28;20677;-67
2022/09/22 07:11:13;;;;;;;14.07;9.97;;;10.80;99.90;;;;;;5054420;28;20695;-70
2022/09/22 07:13:41;;;;;;;13.60;10.27;;;10.80;99.90;;;;;;5053134;28;20231;-69
2022/09/22 07:16:10;;;;;;;12.53;8.90;;;10.80;99.90;;;;;;5054551;28;20631;-68
2022/09/22 07:18:40;;;;;;;11.17;8.77;;;10.90;99.90;;;;;;5054440;28;20561;-68
2022/09/22 07:21:09;;;;;;;13.33;9.40;;;10.90;99.90;;;;;;5054396;28;20674;-68
2022/09/22 07:23:36;;;;;;;12.90;8.73;;;11.00;99.90;;;;;;5052477;28;20296;-68
2022/09/22 07:26:06;;;;;;;9.87;8.27;;;11.00;99.90;;;;;;5053706;28;20225;-69
2022/09/22 07:28:34;;;;;;;8.13;7.13;;;11.10;99.90;;;;;;5051432;28;20232;-70
2022/09/22 07:31:06;;;;;;;13.47;8.83;;;11.10;99.90;;;;;;5053451;28;20326;-69
2022/09/22 07:33:33;;;;;;;9.53;7.60;;;11.20;99.90;;;;;;5053719;28;20291;-69
2022/09/22 07:36:03;;;;;;;12.63;7.63;;;11.20;99.90;;;;;;5054006;28;20308;-69
2022/09/22 07:38:35;;;;;;;10.43;8.37;;;11.30;99.90;;;;;;5052616;28;20223;-69
2022/09/22 07:41:05;;;;;;;11.80;8.53;;;11.30;99.90;;;;;;5054242;28;20196;-68
2022/09/22 07:43:32;;;;;;;16.30;11.20;;;11.40;99.90;;;;;;5053724;28;20202;-69
2022/09/22 07:45:59;;;;;;;14.03;10.90;;;11.40;99.90;;;;;;5053813;28;20683;-69
2022/09/22 07:48:40;;;;;;;14.83;10.93;;;11.50;99.90;;;;;;5052899;28;20210;-68
2022/09/22 07:51:09;;;;;;;14.83;10.50;;;11.50;99.90;;;;;;5053569;28;20217;-69
2022/09/22 07:53:38;;;;;;;14.43;10.30;;;11.50;99.90;;;;;;5053630;28;20293;-68
2022/09/22 07:56:11;;;;;;;11.40;9.60;;;11.50;99.90;;;;;;5053800;28;20208;-69
2022/09/22 07:58:40;;;;;;;13.53;9.77;;;11.50;99.90;;;;;;5052444;28;20625;-70
2022/09/22 08:01:08;;;;;;;12.90;9.30;;;11.50;99.90;;;;;;5053339;28;20312;-69
2022/09/22 08:03:36;;;;;;;11.80;8.40;;;11.60;99.90;;;;;;5053216;28;20217;-69
2022/09/22 08:06:08;;;;;;;15.07;8.10;;;11.70;99.90;;;;;;5053197;28;20218;-69
2022/09/22 08:08:37;;;;;;;10.70;7.43;;;11.70;99.90;;;;;;5051390;28;20201;-69
2022/09/22 08:11:07;;;;;;;11.37;7.83;;;11.80;99.90;;;;;;5053324;28;20248;-69
2022/09/22 08:13:35;;;;;;;11.87;7.50;;;11.80;99.90;;;;;;5053762;28;20300;-68
2022/09/22 08:16:04;;;;;;;8.83;6.77;;;11.90;99.90;;;;;;5052621;28;20197;-69
2022/09/22 08:18:32;;;;;;;9.77;7.40;;;11.90;99.90;;;;;;5055725;28;20205;-68
2022/09/22 08:21:00;;;;;;;9.17;7.37;;;12.00;99.90;;;;;;5053365;28;20217;-69
2022/09/22 08:23:28;;;;;;;8.57;6.60;;;12.00;99.90;;;;;;5052930;28;20205;-69
2022/09/22 08:25:55;;;;;;;9.03;6.20;;;12.00;99.90;;;;;;5052454;28;20344;-69
2022/09/22 08:28:23;;;;;;;8.27;6.80;;;12.10;99.90;;;;;;5056480;28;20215;-68
2022/09/22 08:30:50;;;;;;;10.23;6.20;;;12.20;99.90;;;;;;5053138;28;20245;-69
2022/09/22 08:33:17;;;;;;;8.63;6.10;;;12.30;99.90;;;;;;5052708;28;20208;-70
2022/09/22 08:35:52;;;;;;;7.90;6.30;;;12.30;99.90;;;;;;5052503;28;20547;-69
2022/09/22 08:38:21;;;;;;;7.77;6.30;;;12.40;99.90;;;;;;5052953;28;20209;-70
2022/09/22 08:41:07;;;;;;;8.37;6.20;;;12.50;99.90;;;;;;5052506;28;20588;-69
2022/09/22 08:43:43;;;;;;;10.83;6.40;;;12.50;99.90;;;;;;5058551;28;20201;-68
2022/09/22 08:46:09;;;;;;;8.57;5.70;;;12.60;99.90;;;;;;5055911;28;20304;-68
2022/09/22 08:54:15;;;;;;;7.77;6.33;;;12.70;99.90;;;;;;5052520;28;20686;-69
2022/09/22 08:56:53;;;;;;;9.07;5.67;;;12.70;99.90;;;;;;5052220;28;20204;-68
2022/09/22 08:59:23;;;;;;;10.63;7.40;;;12.70;99.90;;;;;;5052534;28;20559;-71
2022/09/22 09:02:05;;;;;;;8.97;6.37;;;12.80;99.90;;;;;;5051829;28;20580;-68
2022/09/22 09:04:57;;;;;;;9.03;6.40;;;12.80;99.90;;;;;;5052784;28;20665;-70
2022/09/22 09:07:35;;;;;;;7.33;6.53;;;12.80;99.90;;;;;;5050911;28;20316;-68
2022/09/22 09:10:16;;;;;;;8.93;6.37;;;12.90;99.90;;;;;;5048918;28;20670;-70
2022/09/22 09:12:57;;;;;;;6.80;5.03;;;12.90;99.90;;;;;;5052171;28;20200;-69
2022/09/22 09:15:46;;;;;;;12.57;5.00;;;12.90;99.90;;;;;;5049967;28;20292;-69
2022/09/22 09:18:16;;;;;;;5.00;4.00;;;12.90;99.90;;;;;;5051204;28;20239;-68
2022/09/22 09:20:45;;;;;;;6.53;4.13;;;12.90;99.90;;;;;;5047637;28;20296;-68
2022/09/22 09:23:17;;;;;;;4.83;4.20;;;12.90;99.90;;;;;;5050042;28;20558;-68
2022/09/22 09:25:48;;;;;;;5.50;4.07;;;13.00;99.90;;;;;;5050284;28;20220;-70
2022/09/22 09:28:18;;;;;;;6.33;4.20;;;12.90;99.90;;;;;;5050560;28;20403;-69
2022/09/22 09:30:49;;;;;;;5.60;4.47;;;12.90;99.90;;;;;;5051763;28;20248;-69
2022/09/22 09:33:28;;;;;;;5.50;4.33;;;12.90;99.90;;;;;;5052388;28;20192;-70
2022/09/22 09:35:56;;;;;;;7.10;4.20;;;13.00;99.90;;;;;;5049186;28;20604;-69
2022/09/22 09:38:28;;;;;;;5.07;4.00;;;13.00;99.90;;;;;;5040537;28;20606;-68
2022/09/22 09:41:10;;;;;;;6.50;3.73;;;13.00;99.90;;;;;;5062243;28;20643;-70
2022/09/22 09:43:41;;;;;;;6.00;4.73;;;13.10;99.90;;;;;;5051589;28;20221;-68
2022/09/22 09:46:18;;;;;;;5.67;4.80;;;13.00;99.90;;;;;;5051620;28;20213;-71
2022/09/22 09:49:02;;;;;;;6.43;4.60;;;12.90;99.90;;;;;;5051251;28;20285;-69
2022/09/22 09:51:29;;;;;;;7.97;4.33;;;12.90;99.90;;;;;;5051770;28;20240;-70
2022/09/22 09:53:59;;;;;;;8.37;4.40;;;13.00;99.90;;;;;;5051593;28;20296;-69
2022/09/22 09:56:28;;;;;;;6.20;4.17;;;12.90;99.90;;;;;;5052997;28;20667;-69
2022/09/22 10:01:45;;;;;;;5.40;3.87;;;12.90;99.90;;;;;;5051470;28;20205;-69
2022/09/22 10:04:33;;;;;;;4.80;3.83;;;12.80;99.90;;;;;;5051940;28;20193;-68
2022/09/22 10:07:13;;;;;;;4.20;3.80;;;12.80;99.90;;;;;;5051640;28;20304;-69
2022/09/22 10:09:41;;;;;;;4.87;3.67;;;12.80;99.90;;;;;;5051058;28;20203;-68
2022/09/22 10:12:22;;;;;;;6.47;3.97;;;12.80;99.90;;;;;;5053229;28;20646;-68
2022/09/22 10:14:51;;;;;;;4.93;3.70;;;12.80;99.90;;;;;;5058489;28;20666;-71
2022/09/22 10:17:23;;;;;;;3.80;3.40;;;12.80;99.90;;;;;;5051795;28;20213;-69
2022/09/22 10:19:50;;;;;;;5.30;4.10;;;12.80;99.90;;;;;;5051799;28;20209;-70
2022/09/22 10:22:24;;;;;;;7.87;4.13;;;12.80;99.90;;;;;;5051558;28;20213;-69
2022/09/22 10:24:59;;;;;;;6.13;4.27;;;12.80;99.90;;;;;;5050829;28;20201;-67
2022/09/22 10:27:28;;;;;;;5.23;4.00;;;12.80;99.90;;;;;;5050368;28;20260;-70
2022/09/22 10:30:31;;;;;;;5.13;4.00;;;12.70;99.90;;;;;;5052833;28;20201;-69
2022/09/22 10:33:17;;;;;;;4.73;3.60;;;12.70;99.90;;;;;;4967743;28;20224;-70
2022/09/22 10:35:46;;;;;;;5.07;3.70;;;12.70;99.90;;;;;;4968209;28;20291;-70
2022/09/22 10:38:20;;;;;;;7.10;3.90;;;12.70;99.90;;;;;;4969394;28;20277;-70
2022/09/22 10:40:53;;;;;;;6.57;4.20;;;12.70;99.90;;;;;;4972529;28;20577;-69
2022/09/22 10:43:35;;;;;;;4.23;3.60;;;12.80;99.90;;;;;;4969561;28;20228;-68
2022/09/22 10:46:29;;;;;;;8.27;4.30;;;12.70;99.90;;;;;;4971626;28;20813;-69
2022/09/22 10:49:06;;;;;;;8.93;3.73;;;12.70;99.90;;;;;;4971782;28;20800;-68
2022/09/22 10:51:55;;;;;;;6.37;3.60;;;12.70;99.90;;;;;;4975336;28;20208;-70
2022/09/22 10:54:34;;;;;;;5.43;3.97;;;12.80;99.90;;;;;;4968896;28;20222;-70
2022/09/22 10:57:09;;;;;;;3.97;3.40;;;12.80;99.90;;;;;;4974267;28;20204;-68
2022/09/22 10:59:53;;;;;;;5.03;3.60;;;12.90;99.90;;;;;;4973313;28;20199;-69
2022/09/22 11:03:01;;;;;;;5.50;3.70;;;12.90;99.90;;;;;;4972471;28;20200;-69
2022/09/22 11:14:14;;;;;;;5.93;3.03;;;12.90;99.90;;;;;;5051215;28;20231;-69
2022/09/22 11:16:58;;;;;;;5.53;2.90;;;12.80;99.90;;;;;;5054951;28;20189;-68
2022/09/22 11:19:47;;;;;;;6.37;3.17;;;12.70;99.90;;;;;;5053554;28;20292;-69
2022/09/22 11:22:47;;;;;;;3.73;2.97;;;12.60;99.90;;;;;;5058881;28;20204;-70
2022/09/22 11:25:25;;;;;;;3.10;2.80;;;12.60;99.90;;;;;;5054932;28;20232;-69
2022/09/22 11:28:05;;;;;;;4.00;2.80;;;12.50;99.90;;;;;;5054175;28;20730;-69
2022/09/22 11:30:40;;;;;;;5.30;3.10;;;12.60;99.90;;;;;;5054385;28;20344;-70
2022/09/22 11:33:38;;;;;;;3.63;2.70;;;12.70;99.90;;;;;;5053802;28;20197;-69
2022/09/22 11:36:17;;;;;;;3.90;2.90;;;12.80;99.90;;;;;;5033893;28;20285;-69
2022/09/22 11:39:11;;;;;;;4.87;2.80;;;12.90;99.90;;;;;;5054035;28;20201;-69
2022/09/22 11:41:41;;;;;;;3.57;3.00;;;13.00;99.90;;;;;;5047206;28;20201;-68
2022/09/22 11:44:24;;;;;;;3.80;2.80;;;13.10;99.90;;;;;;5050852;28;20244;-68
2022/09/22 11:47:08;;;;;;;4.23;3.33;;;13.20;99.90;;;;;;5061423;28;20766;-68
2022/09/22 11:49:51;;;;;;;3.20;2.90;;;13.30;99.90;;;;;;5053828;28;20696;-68
2022/09/22 11:52:30;;;;;;;2.97;2.67;;;13.30;99.90;;;;;;5053319;28;20200;-69
2022/09/22 11:55:12;;;;;;;4.03;3.40;;;13.40;99.90;;;;;;5054064;28;20212;-69
2022/09/22 11:57:43;;;;;;;4.13;3.33;;;13.50;99.90;;;;;;5033850;28;20190;-69
2022/09/22 12:00:16;;;;;;;3.03;2.50;;;13.50;99.90;;;;;;5032781;28;20190;-68
2022/09/22 12:02:47;;;;;;;3.90;3.00;;;13.50;99.90;;;;;;5048824;28;20216;-68
2022/09/22 12:05:20;;;;;;;3.57;2.53;;;13.60;99.90;;;;;;5050645;28;20289;-69
2022/09/22 12:07:54;;;;;;;5.23;2.67;;;13.60;99.90;;;;;;5053090;28;20229;-70
2022/09/22 12:10:32;;;;;;;4.63;2.80;;;13.70;99.90;;;;;;5053509;28;20225;-68
2022/09/22 12:13:00;;;;;;;3.40;2.50;;;13.70;99.90;;;;;;5053922;28;20623;-68
2022/09/22 12:15:32;;;;;;;2.83;2.40;;;13.70;99.90;;;;;;5051861;28;20867;-68
2022/09/22 12:18:09;;;;;;;2.50;2.30;;;13.70;99.90;;;;;;5050377;28;20285;-68
2022/09/22 12:20:49;;;;;;;3.50;2.53;;;13.70;99.90;;;;;;5050819;28;20301;-69
2022/09/22 12:23:30;;;;;;;3.13;2.50;;;13.80;99.90;;;;;;5050882;28;20292;-69
2022/09/22 12:26:03;;;;;;;3.07;2.63;;;13.80;99.90;;;;;;5050694;28;20227;-68
2022/09/22 12:28:32;;;;;;;3.60;2.80;;;13.70;99.90;;;;;;5052286;28;20214;-67
2022/09/22 12:31:05;;;;;;;4.83;2.53;;;13.70;99.90;;;;;;5052613;28;20416;-70
2022/09/22 12:33:34;;;;;;;3.47;2.93;;;13.70;99.90;;;;;;5038575;28;20288;-69
2022/09/22 12:36:02;;;;;;;3.43;2.77;;;13.70;99.90;;;;;;5053504;28;20204;-70
2022/09/22 12:38:30;;;;;;;2.90;2.60;;;13.70;99.90;;;;;;5052383;28;20292;-72
2022/09/22 12:41:03;;;;;;;5.13;3.00;;;13.70;99.90;;;;;;5049590;28;20610;-70
2022/09/22 12:43:31;;;;;;;4.17;3.30;;;13.70;99.90;;;;;;5050741;28;20225;-68
2022/09/22 12:46:01;;;;;;;3.80;3.00;;;13.70;99.90;;;;;;5052875;28;20263;-69
2022/09/22 12:48:31;;;;;;;4.17;2.80;;;13.50;99.90;;;;;;5052387;28;20224;-69
2022/09/22 12:51:17;;;;;;;3.77;3.03;;;13.30;99.90;;;;;;5052596;28;20283;-69
2022/09/22 12:53:44;;;;;;;4.27;3.07;;;13.30;99.90;;;;;;5038149;28;20252;-68
2022/09/22 12:56:46;;;;;;;4.97;2.83;;;13.20;99.90;;;;;;5052753;28;20288;-69
2022/09/22 12:59:54;;;;;;;3.13;2.80;;;13.20;99.90;;;;;;4971200;28;20712;-69
2022/09/22 13:02:43;;;;;;;2.93;2.60;;;13.30;99.90;;;;;;4971707;28;20212;-67
2022/09/22 13:05:36;;;;;;;6.63;2.77;;;13.30;99.90;;;;;;4968505;28;20240;-69
2022/09/22 13:08:03;;;;;;;4.77;2.67;;;13.40;99.90;;;;;;4970223;28;20224;-68
2022/09/22 13:10:58;;;;;;;3.53;2.60;;;13.40;99.90;;;;;;4970962;28;20212;-69
2022/09/22 13:13:42;;;;;;;3.80;2.70;;;13.40;99.90;;;;;;4971206;28;20659;-70
2022/09/22 13:16:35;;;;;;;4.70;2.57;;;13.50;99.90;;;;;;4970867;28;20802;-69
2022/09/22 13:19:02;;;;;;;5.43;3.30;;;13.50;99.90;;;;;;4975882;28;20216;-69
2022/09/22 13:21:31;;;;;;;4.43;3.10;;;13.50;99.90;;;;;;4990445;28;20213;-67
2022/09/22 13:24:00;;;;;;;3.80;2.70;;;13.60;99.90;;;;;;4972723;28;20243;-69
2022/09/22 13:26:29;;;;;;;2.77;2.20;;;13.60;99.90;;;;;;4971008;28;20816;-68
2022/09/22 13:29:02;;;;;;;2.57;2.13;;;13.60;99.90;;;;;;4971100;28;20318;-68